sensor_id;sensor_type;location;lat;lon;timestamp;temperature;humidity
75925;DHT22;64604;44.752;37.674;2022-11-12T00:01:06;5.12;95.67
75925;DHT22;64604;44.752;37.674;2022-11-12T00:02:26;5.07;95.80
75925;DHT22;64604;44.752;37.674;2022-11-12T00:03:46;5.00;96.33
75925;DHT22;64604;44.752;37.674;2022-11-12T00:05:06;4.92;96.64
75925;DHT22;64604;44.752;37.674;2022-11-12T00:06:26;4.89;96.89
75925;DHT22;64604;44.752;37.674;2022-11-12T00:07:46;4.86;97.18
75925;DHT22;64604;44.752;37.674;2022-11-12T00:09:05;4.82;97.22
75925;DHT22;64604;44.752;37.674;2022-11-12T00:10:25;4.80;97.28
75925;DHT22;64604;44.752;37.674;2022-11-12T00:11:44;4.76;97.45
75925;DHT22;64604;44.752;37.674;2022-11-12T00:13:04;4.74;97.47
75925;DHT22;64604;44.752;37.674;2022-11-12T00:14:23;4.72;97.72
75925;DHT22;64604;44.752;37.674;2022-11-12T00:15:43;4.69;97.94
75925;DHT22;64604;44.752;37.674;2022-11-12T00:17:03;4.68;98.08
75925;DHT22;64604;44.752;37.674;2022-11-12T00:18:23;4.66;98.16
75925;DHT22;64604;44.752;37.674;2022-11-12T00:19:43;4.68;98.16
75925;DHT22;64604;44.752;37.674;2022-11-12T00:21:03;4.68;98.09
75925;DHT22;64604;44.752;37.674;2022-11-12T00:22:23;4.66;98.12
75925;DHT22;64604;44.752;37.674;2022-11-12T00:23:43;4.63;98.19
75925;DHT22;64604;44.752;37.674;2022-11-12T00:25:03;4.62;98.14
75925;DHT22;64604;44.752;37.674;2022-11-12T00:26:23;4.57;98.17
75925;DHT22;64604;44.752;37.674;2022-11-12T00:27:42;4.52;98.41
75925;DHT22;64604;44.752;37.674;2022-11-12T00:29:02;4.47;98.55
75925;DHT22;64604;44.752;37.674;2022-11-12T00:30:22;4.46;98.81
75925;DHT22;64604;44.752;37.674;2022-11-12T00:31:42;4.41;98.94
75925;DHT22;64604;44.752;37.674;2022-11-12T00:33:02;4.38;99.10
75925;DHT22;64604;44.752;37.674;2022-11-12T00:34:21;4.36;99.32
75925;DHT22;64604;44.752;37.674;2022-11-12T00:35:41;4.35;99.61
75925;DHT22;64604;44.752;37.674;2022-11-12T00:37:00;4.34;99.64
75925;DHT22;64604;44.752;37.674;2022-11-12T00:38:20;4.35;99.67
75925;DHT22;64604;44.752;37.674;2022-11-12T00:39:40;4.35;99.80
75925;DHT22;64604;44.752;37.674;2022-11-12T00:41:00;4.34;100.00
75925;DHT22;64604;44.752;37.674;2022-11-12T00:42:19;4.30;100.01
75925;DHT22;64604;44.752;37.674;2022-11-12T00:43:39;4.29;100.16
75925;DHT22;64604;44.752;37.674;2022-11-12T00:44:59;4.27;100.32
75925;DHT22;64604;44.752;37.674;2022-11-12T00:46:18;4.24;100.51
75925;DHT22;64604;44.752;37.674;2022-11-12T00:47:38;4.24;100.74
75925;DHT22;64604;44.752;37.674;2022-11-12T00:48:57;4.22;100.85
75925;DHT22;64604;44.752;37.674;2022-11-12T00:50:17;4.21;101.04
75925;DHT22;64604;44.752;37.674;2022-11-12T00:51:37;4.21;101.17
75925;DHT22;64604;44.752;37.674;2022-11-12T00:52:56;4.19;101.22
75925;DHT22;64604;44.752;37.674;2022-11-12T00:54:16;4.18;101.32
75925;DHT22;64604;44.752;37.674;2022-11-12T00:55:36;4.18;101.43
75925;DHT22;64604;44.752;37.674;2022-11-12T00:56:56;4.17;101.39
75925;DHT22;64604;44.752;37.674;2022-11-12T00:58:15;4.17;101.47
75925;DHT22;64604;44.752;37.674;2022-11-12T00:59:35;4.16;101.48
75925;DHT22;64604;44.752;37.674;2022-11-12T01:00:54;4.16;101.43
75925;DHT22;64604;44.752;37.674;2022-11-12T01:02:14;4.15;101.48
75925;DHT22;64604;44.752;37.674;2022-11-12T01:03:35;4.14;101.54
75925;DHT22;64604;44.752;37.674;2022-11-12T01:04:54;4.15;101.57
75925;DHT22;64604;44.752;37.674;2022-11-12T01:06:15;4.16;101.67
75925;DHT22;64604;44.752;37.674;2022-11-12T01:07:35;4.15;101.57
75925;DHT22;64604;44.752;37.674;2022-11-12T01:08:55;4.17;101.57
75925;DHT22;64604;44.752;37.674;2022-11-12T01:10:14;4.17;101.61
75925;DHT22;64604;44.752;37.674;2022-11-12T01:11:34;4.17;101.57
75925;DHT22;64604;44.752;37.674;2022-11-12T01:12:54;4.18;101.51
75925;DHT22;64604;44.752;37.674;2022-11-12T01:14:14;4.18;101.49
75925;DHT22;64604;44.752;37.674;2022-11-12T01:15:33;4.19;101.47
75925;DHT22;64604;44.752;37.674;2022-11-12T01:16:58;4.17;101.38
75925;DHT22;64604;44.752;37.674;2022-11-12T01:18:18;4.18;101.46
75925;DHT22;64604;44.752;37.674;2022-11-12T01:19:37;4.17;101.44
75925;DHT22;64604;44.752;37.674;2022-11-12T01:21:01;4.18;101.39
75925;DHT22;64604;44.752;37.674;2022-11-12T01:22:21;4.20;101.49
75925;DHT22;64604;44.752;37.674;2022-11-12T01:23:41;4.21;101.44
75925;DHT22;64604;44.752;37.674;2022-11-12T01:25:01;4.21;101.43
75925;DHT22;64604;44.752;37.674;2022-11-12T01:26:21;4.23;101.38
75925;DHT22;64604;44.752;37.674;2022-11-12T01:27:41;4.22;101.25
75925;DHT22;64604;44.752;37.674;2022-11-12T01:29:01;4.23;101.26
75925;DHT22;64604;44.752;37.674;2022-11-12T01:30:21;4.23;101.18
75925;DHT22;64604;44.752;37.674;2022-11-12T01:31:41;4.23;101.17
75925;DHT22;64604;44.752;37.674;2022-11-12T01:33:00;4.23;101.10
75925;DHT22;64604;44.752;37.674;2022-11-12T01:34:20;4.21;101.09
75925;DHT22;64604;44.752;37.674;2022-11-12T01:35:40;4.21;101.17
75925;DHT22;64604;44.752;37.674;2022-11-12T01:37:00;4.21;101.23
75925;DHT22;64604;44.752;37.674;2022-11-12T01:38:19;4.22;101.33
75925;DHT22;64604;44.752;37.674;2022-11-12T01:39:39;4.24;101.51
75925;DHT22;64604;44.752;37.674;2022-11-12T01:40:59;4.27;101.57
75925;DHT22;64604;44.752;37.674;2022-11-12T01:42:18;4.28;101.45
75925;DHT22;64604;44.752;37.674;2022-11-12T01:43:38;4.27;101.50
75925;DHT22;64604;44.752;37.674;2022-11-12T01:44:58;4.28;101.45
75925;DHT22;64604;44.752;37.674;2022-11-12T01:46:25;4.27;101.46
75925;DHT22;64604;44.752;37.674;2022-11-12T01:47:46;4.27;101.52
75925;DHT22;64604;44.752;37.674;2022-11-12T01:49:10;4.28;101.55
75925;DHT22;64604;44.752;37.674;2022-11-12T01:50:31;4.30;101.54
75925;DHT22;64604;44.752;37.674;2022-11-12T01:51:53;4.31;101.51
75925;DHT22;64604;44.752;37.674;2022-11-12T01:53:13;4.31;101.48
75925;DHT22;64604;44.752;37.674;2022-11-12T01:54:33;4.30;101.48
75925;DHT22;64604;44.752;37.674;2022-11-12T01:55:53;4.30;101.48
75925;DHT22;64604;44.752;37.674;2022-11-12T01:57:14;4.32;101.42
75925;DHT22;64604;44.752;37.674;2022-11-12T01:58:35;4.34;101.44
75925;DHT22;64604;44.752;37.674;2022-11-12T01:59:59;4.34;101.35
75925;DHT22;64604;44.752;37.674;2022-11-12T02:01:19;4.36;101.25
75925;DHT22;64604;44.752;37.674;2022-11-12T02:02:39;4.35;101.16
75925;DHT22;64604;44.752;37.674;2022-11-12T02:03:58;4.34;101.15
75925;DHT22;64604;44.752;37.674;2022-11-12T02:05:18;4.34;101.03
75925;DHT22;64604;44.752;37.674;2022-11-12T02:06:39;4.36;101.10
75925;DHT22;64604;44.752;37.674;2022-11-12T02:07:59;4.35;101.03
75925;DHT22;64604;44.752;37.674;2022-11-12T02:09:19;4.35;101.12
75925;DHT22;64604;44.752;37.674;2022-11-12T02:10:39;4.36;101.08
75925;DHT22;64604;44.752;37.674;2022-11-12T02:11:59;4.36;101.09
75925;DHT22;64604;44.752;37.674;2022-11-12T02:13:18;4.36;100.96
75925;DHT22;64604;44.752;37.674;2022-11-12T02:14:57;4.37;100.93
75925;DHT22;64604;44.752;37.674;2022-11-12T02:16:16;4.37;100.91
75925;DHT22;64604;44.752;37.674;2022-11-12T02:17:36;4.36;100.89
75925;DHT22;64604;44.752;37.674;2022-11-12T02:18:56;4.36;100.89
75925;DHT22;64604;44.752;37.674;2022-11-12T02:20:16;4.35;100.86
75925;DHT22;64604;44.752;37.674;2022-11-12T02:21:36;4.34;100.83
75925;DHT22;64604;44.752;37.674;2022-11-12T02:22:55;4.34;100.77
75925;DHT22;64604;44.752;37.674;2022-11-12T02:25:35;4.39;100.88
75925;DHT22;64604;44.752;37.674;2022-11-12T02:26:54;4.38;100.76
75925;DHT22;64604;44.752;37.674;2022-11-12T02:28:14;4.39;100.67
75925;DHT22;64604;44.752;37.674;2022-11-12T02:29:34;4.41;100.62
75925;DHT22;64604;44.752;37.674;2022-11-12T02:30:54;4.41;100.67
75925;DHT22;64604;44.752;37.674;2022-11-12T02:32:14;4.38;100.58
75925;DHT22;64604;44.752;37.674;2022-11-12T02:33:34;4.38;100.58
75925;DHT22;64604;44.752;37.674;2022-11-12T02:34:53;4.38;100.66
75925;DHT22;64604;44.752;37.674;2022-11-12T02:36:13;4.38;100.64
75925;DHT22;64604;44.752;37.674;2022-11-12T02:37:33;4.41;100.77
75925;DHT22;64604;44.752;37.674;2022-11-12T02:38:53;4.41;100.72
75925;DHT22;64604;44.752;37.674;2022-11-12T02:40:12;4.41;100.72
75925;DHT22;64604;44.752;37.674;2022-11-12T02:41:32;4.42;100.70
75925;DHT22;64604;44.752;37.674;2022-11-12T02:42:52;4.43;100.64
75925;DHT22;64604;44.752;37.674;2022-11-12T02:44:12;4.44;100.61
75925;DHT22;64604;44.752;37.674;2022-11-12T02:45:32;4.45;100.55
75925;DHT22;64604;44.752;37.674;2022-11-12T02:46:52;4.45;100.54
75925;DHT22;64604;44.752;37.674;2022-11-12T02:48:11;4.44;100.47
75925;DHT22;64604;44.752;37.674;2022-11-12T02:49:31;4.43;100.38
75925;DHT22;64604;44.752;37.674;2022-11-12T02:50:51;4.43;100.47
75925;DHT22;64604;44.752;37.674;2022-11-12T02:52:11;4.43;100.50
75925;DHT22;64604;44.752;37.674;2022-11-12T02:53:30;4.44;100.62
75925;DHT22;64604;44.752;37.674;2022-11-12T02:54:50;4.46;100.75
75925;DHT22;64604;44.752;37.674;2022-11-12T02:56:10;4.45;100.78
75925;DHT22;64604;44.752;37.674;2022-11-12T02:57:30;4.45;100.78
75925;DHT22;64604;44.752;37.674;2022-11-12T02:58:50;4.45;100.86
75925;DHT22;64604;44.752;37.674;2022-11-12T03:00:11;4.45;100.74
75925;DHT22;64604;44.752;37.674;2022-11-12T03:01:31;4.43;100.58
75925;DHT22;64604;44.752;37.674;2022-11-12T03:02:50;4.43;100.59
75925;DHT22;64604;44.752;37.674;2022-11-12T03:04:17;4.42;100.56
75925;DHT22;64604;44.752;37.674;2022-11-12T03:05:37;4.39;100.53
75925;DHT22;64604;44.752;37.674;2022-11-12T03:06:56;4.39;100.60
75925;DHT22;64604;44.752;37.674;2022-11-12T03:08:16;4.35;100.62
75925;DHT22;64604;44.752;37.674;2022-11-12T03:09:35;4.33;100.60
75925;DHT22;64604;44.752;37.674;2022-11-12T03:10:54;4.34;100.75
75925;DHT22;64604;44.752;37.674;2022-11-12T03:12:14;4.34;100.67
75925;DHT22;64604;44.752;37.674;2022-11-12T03:13:34;4.33;100.67
75925;DHT22;64604;44.752;37.674;2022-11-12T03:14:54;4.33;100.62
75925;DHT22;64604;44.752;37.674;2022-11-12T03:16:14;4.33;100.70
75925;DHT22;64604;44.752;37.674;2022-11-12T03:17:33;4.34;100.71
75925;DHT22;64604;44.752;37.674;2022-11-12T03:18:53;4.34;100.72
75925;DHT22;64604;44.752;37.674;2022-11-12T03:20:13;4.35;100.76
75925;DHT22;64604;44.752;37.674;2022-11-12T03:21:32;4.35;100.75
75925;DHT22;64604;44.752;37.674;2022-11-12T03:24:15;4.37;100.80
75925;DHT22;64604;44.752;37.674;2022-11-12T03:25:35;4.37;100.70
75925;DHT22;64604;44.752;37.674;2022-11-12T03:26:55;4.37;100.64
75925;DHT22;64604;44.752;37.674;2022-11-12T03:28:15;4.38;100.77
75925;DHT22;64604;44.752;37.674;2022-11-12T03:29:35;4.38;100.79
75925;DHT22;64604;44.752;37.674;2022-11-12T03:30:57;4.37;100.75
75925;DHT22;64604;44.752;37.674;2022-11-12T03:32:17;4.36;100.63
75925;DHT22;64604;44.752;37.674;2022-11-12T03:33:37;4.38;100.61
75925;DHT22;64604;44.752;37.674;2022-11-12T03:34:57;4.38;100.58
75925;DHT22;64604;44.752;37.674;2022-11-12T03:36:16;4.36;100.62
75925;DHT22;64604;44.752;37.674;2022-11-12T03:37:36;4.36;100.54
75925;DHT22;64604;44.752;37.674;2022-11-12T03:38:56;4.33;100.65
75925;DHT22;64604;44.752;37.674;2022-11-12T03:40:16;4.31;100.80
75925;DHT22;64604;44.752;37.674;2022-11-12T03:41:36;4.31;100.95
75925;DHT22;64604;44.752;37.674;2022-11-12T03:42:55;4.31;101.02
75925;DHT22;64604;44.752;37.674;2022-11-12T03:44:15;4.31;101.12
75925;DHT22;64604;44.752;37.674;2022-11-12T03:45:34;4.31;101.19
75925;DHT22;64604;44.752;37.674;2022-11-12T03:46:54;4.33;101.16
75925;DHT22;64604;44.752;37.674;2022-11-12T03:48:14;4.33;101.14
75925;DHT22;64604;44.752;37.674;2022-11-12T03:49:34;4.33;101.17
75925;DHT22;64604;44.752;37.674;2022-11-12T03:50:56;4.34;101.10
75925;DHT22;64604;44.752;37.674;2022-11-12T03:52:16;4.35;101.12
75925;DHT22;64604;44.752;37.674;2022-11-12T03:53:36;4.38;101.09
75925;DHT22;64604;44.752;37.674;2022-11-12T03:54:55;4.38;100.98
75925;DHT22;64604;44.752;37.674;2022-11-12T03:56:15;4.38;100.85
75925;DHT22;64604;44.752;37.674;2022-11-12T03:57:34;4.37;100.81
75925;DHT22;64604;44.752;37.674;2022-11-12T03:58:54;4.37;100.83
75925;DHT22;64604;44.752;37.674;2022-11-12T04:00:14;4.38;100.88
75925;DHT22;64604;44.752;37.674;2022-11-12T04:01:34;4.38;100.83
75925;DHT22;64604;44.752;37.674;2022-11-12T04:02:53;4.38;100.91
75925;DHT22;64604;44.752;37.674;2022-11-12T04:04:13;4.41;100.96
75925;DHT22;64604;44.752;37.674;2022-11-12T04:05:33;4.38;101.01
75925;DHT22;64604;44.752;37.674;2022-11-12T04:07:11;4.42;101.09
75925;DHT22;64604;44.752;37.674;2022-11-12T04:08:50;4.44;101.03
75925;DHT22;64604;44.752;37.674;2022-11-12T04:10:09;4.44;101.05
75925;DHT22;64604;44.752;37.674;2022-11-12T04:11:29;4.44;101.06
75925;DHT22;64604;44.752;37.674;2022-11-12T04:12:49;4.47;101.03
75925;DHT22;64604;44.752;37.674;2022-11-12T04:14:27;4.47;100.91
75925;DHT22;64604;44.752;37.674;2022-11-12T04:15:47;4.47;100.85
75925;DHT22;64604;44.752;37.674;2022-11-12T04:17:27;4.47;100.84
75925;DHT22;64604;44.752;37.674;2022-11-12T04:19:05;4.49;100.83
75925;DHT22;64604;44.752;37.674;2022-11-12T04:20:44;4.48;100.80
75925;DHT22;64604;44.752;37.674;2022-11-12T04:22:22;4.49;100.74
75925;DHT22;64604;44.752;37.674;2022-11-12T04:23:42;4.51;100.70
75925;DHT22;64604;44.752;37.674;2022-11-12T04:25:02;4.49;100.67
75925;DHT22;64604;44.752;37.674;2022-11-12T04:26:40;4.51;100.68
75925;DHT22;64604;44.752;37.674;2022-11-12T04:28:00;4.52;100.68
75925;DHT22;64604;44.752;37.674;2022-11-12T04:29:19;4.53;100.73
75925;DHT22;64604;44.752;37.674;2022-11-12T04:30:58;4.53;100.63
75925;DHT22;64604;44.752;37.674;2022-11-12T04:32:17;4.54;100.60
75925;DHT22;64604;44.752;37.674;2022-11-12T04:33:37;4.56;100.58
75925;DHT22;64604;44.752;37.674;2022-11-12T04:34:57;4.58;100.60
75925;DHT22;64604;44.752;37.674;2022-11-12T04:36:16;4.60;100.57
75925;DHT22;64604;44.752;37.674;2022-11-12T04:37:36;4.62;100.55
75925;DHT22;64604;44.752;37.674;2022-11-12T04:39:06;4.62;100.48
75925;DHT22;64604;44.752;37.674;2022-11-12T04:40:25;4.65;100.47
75925;DHT22;64604;44.752;37.674;2022-11-12T04:42:03;4.66;100.22
75925;DHT22;64604;44.752;37.674;2022-11-12T04:43:42;4.67;99.99
75925;DHT22;64604;44.752;37.674;2022-11-12T04:45:22;4.67;99.77
75925;DHT22;64604;44.752;37.674;2022-11-12T04:46:42;4.68;99.70
75925;DHT22;64604;44.752;37.674;2022-11-12T04:48:01;4.71;99.66
75925;DHT22;64604;44.752;37.674;2022-11-12T04:49:21;4.72;99.65
75925;DHT22;64604;44.752;37.674;2022-11-12T04:50:41;4.73;99.64
75925;DHT22;64604;44.752;37.674;2022-11-12T04:52:02;4.77;99.58
75925;DHT22;64604;44.752;37.674;2022-11-12T04:53:25;4.79;99.48
75925;DHT22;64604;44.752;37.674;2022-11-12T04:54:45;4.83;99.30
75925;DHT22;64604;44.752;37.674;2022-11-12T04:56:05;4.86;99.18
75925;DHT22;64604;44.752;37.674;2022-11-12T04:57:25;4.89;99.01
75925;DHT22;64604;44.752;37.674;2022-11-12T04:58:44;4.91;98.77
75925;DHT22;64604;44.752;37.674;2022-11-12T05:00:04;4.94;98.68
75925;DHT22;64604;44.752;37.674;2022-11-12T05:01:24;4.98;98.52
75925;DHT22;64604;44.752;37.674;2022-11-12T05:02:43;5.03;98.35
75925;DHT22;64604;44.752;37.674;2022-11-12T05:04:03;5.06;98.22
75925;DHT22;64604;44.752;37.674;2022-11-12T05:05:23;5.07;98.10
75925;DHT22;64604;44.752;37.674;2022-11-12T05:06:42;5.09;98.19
75925;DHT22;64604;44.752;37.674;2022-11-12T05:08:11;5.10;98.17
75925;DHT22;64604;44.752;37.674;2022-11-12T05:09:31;5.15;98.26
75925;DHT22;64604;44.752;37.674;2022-11-12T05:10:50;5.17;98.15
75925;DHT22;64604;44.752;37.674;2022-11-12T05:12:10;5.19;98.09
75925;DHT22;64604;44.752;37.674;2022-11-12T05:13:30;5.23;98.03
75925;DHT22;64604;44.752;37.674;2022-11-12T05:14:49;5.25;97.95
75925;DHT22;64604;44.752;37.674;2022-11-12T05:16:09;5.28;98.00
75925;DHT22;64604;44.752;37.674;2022-11-12T05:17:32;5.31;97.91
75925;DHT22;64604;44.752;37.674;2022-11-12T05:18:51;5.34;97.87
75925;DHT22;64604;44.752;37.674;2022-11-12T05:20:12;5.35;97.76
75925;DHT22;64604;44.752;37.674;2022-11-12T05:21:32;5.37;97.79
75925;DHT22;64604;44.752;37.674;2022-11-12T05:23:10;5.43;97.66
75925;DHT22;64604;44.752;37.674;2022-11-12T05:24:34;5.47;97.65
75925;DHT22;64604;44.752;37.674;2022-11-12T05:25:53;5.50;97.43
75925;DHT22;64604;44.752;37.674;2022-11-12T05:27:14;5.52;97.42
75925;DHT22;64604;44.752;37.674;2022-11-12T05:28:34;5.56;97.25
75925;DHT22;64604;44.752;37.674;2022-11-12T05:29:53;5.59;97.09
75925;DHT22;64604;44.752;37.674;2022-11-12T05:31:13;5.62;97.01
75925;DHT22;64604;44.752;37.674;2022-11-12T05:32:32;5.66;96.92
75925;DHT22;64604;44.752;37.674;2022-11-12T05:33:52;5.67;96.65
75925;DHT22;64604;44.752;37.674;2022-11-12T05:35:11;5.71;96.73
75925;DHT22;64604;44.752;37.674;2022-11-12T05:36:31;5.72;96.58
75925;DHT22;64604;44.752;37.674;2022-11-12T05:37:51;5.76;96.60
75925;DHT22;64604;44.752;37.674;2022-11-12T05:39:11;5.80;96.43
75925;DHT22;64604;44.752;37.674;2022-11-12T05:40:30;5.81;96.35
75925;DHT22;64604;44.752;37.674;2022-11-12T05:41:51;5.82;96.29
75925;DHT22;64604;44.752;37.674;2022-11-12T05:43:11;5.84;96.12
75925;DHT22;64604;44.752;37.674;2022-11-12T05:44:30;5.90;95.96
75925;DHT22;64604;44.752;37.674;2022-11-12T05:45:50;5.92;95.84
75925;DHT22;64604;44.752;37.674;2022-11-12T05:47:09;5.95;95.49
75925;DHT22;64604;44.752;37.674;2022-11-12T05:48:29;5.99;95.30
75925;DHT22;64604;44.752;37.674;2022-11-12T05:49:49;6.02;95.19
75925;DHT22;64604;44.752;37.674;2022-11-12T05:51:09;6.07;94.94
75925;DHT22;64604;44.752;37.674;2022-11-12T05:52:28;6.11;94.59
75925;DHT22;64604;44.752;37.674;2022-11-12T05:53:48;6.16;94.75
75925;DHT22;64604;44.752;37.674;2022-11-12T05:55:08;6.24;94.06
75925;DHT22;64604;44.752;37.674;2022-11-12T05:56:28;6.27;93.53
75925;DHT22;64604;44.752;37.674;2022-11-12T05:57:48;6.33;93.40
75925;DHT22;64604;44.752;37.674;2022-11-12T05:59:08;6.36;92.80
75925;DHT22;64604;44.752;37.674;2022-11-12T06:00:28;6.38;92.87
75925;DHT22;64604;44.752;37.674;2022-11-12T06:01:48;6.42;93.00
75925;DHT22;64604;44.752;37.674;2022-11-12T06:03:08;6.46;92.28
75925;DHT22;64604;44.752;37.674;2022-11-12T06:04:28;6.51;92.19
75925;DHT22;64604;44.752;37.674;2022-11-12T06:05:48;6.52;92.00
75925;DHT22;64604;44.752;37.674;2022-11-12T06:07:08;6.55;92.06
75925;DHT22;64604;44.752;37.674;2022-11-12T06:08:28;6.61;91.73
75925;DHT22;64604;44.752;37.674;2022-11-12T06:09:47;6.70;91.41
75925;DHT22;64604;44.752;37.674;2022-11-12T06:11:07;6.71;91.27
75925;DHT22;64604;44.752;37.674;2022-11-12T06:12:27;6.79;90.78
75925;DHT22;64604;44.752;37.674;2022-11-12T06:13:47;6.83;90.73
75925;DHT22;64604;44.752;37.674;2022-11-12T06:15:07;6.90;90.40
75925;DHT22;64604;44.752;37.674;2022-11-12T06:16:26;6.97;90.15
75925;DHT22;64604;44.752;37.674;2022-11-12T06:17:46;6.98;89.24
75925;DHT22;64604;44.752;37.674;2022-11-12T06:19:06;7.01;89.49
75925;DHT22;64604;44.752;37.674;2022-11-12T06:20:26;7.03;89.14
75925;DHT22;64604;44.752;37.674;2022-11-12T06:21:46;7.08;89.60
75925;DHT22;64604;44.752;37.674;2022-11-12T06:23:05;7.16;88.99
75925;DHT22;64604;44.752;37.674;2022-11-12T06:24:25;7.17;88.68
75925;DHT22;64604;44.752;37.674;2022-11-12T06:25:46;7.20;88.31
75925;DHT22;64604;44.752;37.674;2022-11-12T06:27:06;7.26;88.29
75925;DHT22;64604;44.752;37.674;2022-11-12T06:28:25;7.30;88.02
75925;DHT22;64604;44.752;37.674;2022-11-12T06:29:45;7.40;87.41
75925;DHT22;64604;44.752;37.674;2022-11-12T06:31:05;7.46;86.80
75925;DHT22;64604;44.752;37.674;2022-11-12T06:32:24;7.53;87.05
75925;DHT22;64604;44.752;37.674;2022-11-12T06:33:44;7.54;86.58
75925;DHT22;64604;44.752;37.674;2022-11-12T06:35:04;7.59;86.44
75925;DHT22;64604;44.752;37.674;2022-11-12T06:36:24;7.63;86.32
75925;DHT22;64604;44.752;37.674;2022-11-12T06:37:47;7.68;86.35
75925;DHT22;64604;44.752;37.674;2022-11-12T06:39:09;7.70;86.54
75925;DHT22;64604;44.752;37.674;2022-11-12T06:40:29;7.79;85.80
75925;DHT22;64604;44.752;37.674;2022-11-12T06:41:49;7.89;85.44
75925;DHT22;64604;44.752;37.674;2022-11-12T06:43:09;7.90;84.99
75925;DHT22;64604;44.752;37.674;2022-11-12T06:44:29;7.98;84.98
75925;DHT22;64604;44.752;37.674;2022-11-12T06:45:49;8.02;84.13
75925;DHT22;64604;44.752;37.674;2022-11-12T06:47:09;8.09;84.13
75925;DHT22;64604;44.752;37.674;2022-11-12T06:48:28;8.15;83.68
75925;DHT22;64604;44.752;37.674;2022-11-12T06:49:48;8.23;83.94
75925;DHT22;64604;44.752;37.674;2022-11-12T06:51:14;8.29;83.43
75925;DHT22;64604;44.752;37.674;2022-11-12T06:52:35;8.34;82.81
75925;DHT22;64604;44.752;37.674;2022-11-12T06:53:54;8.41;82.75
75925;DHT22;64604;44.752;37.674;2022-11-12T06:55:14;8.51;81.94
75925;DHT22;64604;44.752;37.674;2022-11-12T06:56:34;8.51;81.46
75925;DHT22;64604;44.752;37.674;2022-11-12T06:57:53;8.57;82.59
75925;DHT22;64604;44.752;37.674;2022-11-12T06:59:13;8.63;81.68
75925;DHT22;64604;44.752;37.674;2022-11-12T07:00:33;8.67;82.33
75925;DHT22;64604;44.752;37.674;2022-11-12T07:01:52;8.76;81.69
75925;DHT22;64604;44.752;37.674;2022-11-12T07:03:12;8.81;81.23
75925;DHT22;64604;44.752;37.674;2022-11-12T07:04:33;8.91;81.09
75925;DHT22;64604;44.752;37.674;2022-11-12T07:05:52;9.00;79.82
75925;DHT22;64604;44.752;37.674;2022-11-12T07:07:12;9.03;80.19
75925;DHT22;64604;44.752;37.674;2022-11-12T07:08:31;9.09;80.30
75925;DHT22;64604;44.752;37.674;2022-11-12T07:09:51;9.17;79.08
75925;DHT22;64604;44.752;37.674;2022-11-12T07:11:11;9.24;80.04
75925;DHT22;64604;44.752;37.674;2022-11-12T07:12:30;9.31;77.76
75925;DHT22;64604;44.752;37.674;2022-11-12T07:13:50;9.38;77.89
75925;DHT22;64604;44.752;37.674;2022-11-12T07:15:10;9.49;76.56
75925;DHT22;64604;44.752;37.674;2022-11-12T07:16:30;9.53;75.46
75925;DHT22;64604;44.752;37.674;2022-11-12T07:17:50;9.54;75.76
75925;DHT22;64604;44.752;37.674;2022-11-12T07:19:09;9.62;76.05
75925;DHT22;64604;44.752;37.674;2022-11-12T07:20:29;9.59;75.63
75925;DHT22;64604;44.752;37.674;2022-11-12T07:21:49;9.66;74.98
75925;DHT22;64604;44.752;37.674;2022-11-12T07:23:09;9.76;75.50
75925;DHT22;64604;44.752;37.674;2022-11-12T07:24:28;9.84;75.44
75925;DHT22;64604;44.752;37.674;2022-11-12T07:25:58;9.91;74.71
75925;DHT22;64604;44.752;37.674;2022-11-12T07:27:18;10.00;76.39
75925;DHT22;64604;44.752;37.674;2022-11-12T07:28:38;10.05;75.81
75925;DHT22;64604;44.752;37.674;2022-11-12T07:29:57;10.13;76.16
75925;DHT22;64604;44.752;37.674;2022-11-12T07:31:18;10.22;75.05
75925;DHT22;64604;44.752;37.674;2022-11-12T07:32:37;10.31;74.86
75925;DHT22;64604;44.752;37.674;2022-11-12T07:33:57;10.35;73.57
75925;DHT22;64604;44.752;37.674;2022-11-12T07:35:17;10.42;73.85
75925;DHT22;64604;44.752;37.674;2022-11-12T07:36:37;10.51;73.57
75925;DHT22;64604;44.752;37.674;2022-11-12T07:37:56;10.51;74.00
75925;DHT22;64604;44.752;37.674;2022-11-12T07:39:17;10.55;73.79
75925;DHT22;64604;44.752;37.674;2022-11-12T07:40:36;10.58;72.94
75925;DHT22;64604;44.752;37.674;2022-11-12T07:41:56;10.63;73.72
75925;DHT22;64604;44.752;37.674;2022-11-12T07:43:16;10.70;73.19
75925;DHT22;64604;44.752;37.674;2022-11-12T07:44:35;10.69;72.47
75925;DHT22;64604;44.752;37.674;2022-11-12T07:45:58;10.68;73.83
75925;DHT22;64604;44.752;37.674;2022-11-12T07:47:18;10.74;73.26
75925;DHT22;64604;44.752;37.674;2022-11-12T07:48:38;10.67;73.39
75925;DHT22;64604;44.752;37.674;2022-11-12T07:49:57;10.70;73.81
75925;DHT22;64604;44.752;37.674;2022-11-12T07:51:19;10.80;73.97
75925;DHT22;64604;44.752;37.674;2022-11-12T12:48:34;8.26;87.36
75925;DHT22;64604;44.752;37.674;2022-11-12T12:49:56;8.24;86.80
75925;DHT22;64604;44.752;37.674;2022-11-12T12:51:18;8.24;86.96
75925;DHT22;64604;44.752;37.674;2022-11-12T12:53:16;8.21;86.75
75925;DHT22;64604;44.752;37.674;2022-11-12T12:56:00;8.13;87.39
75925;DHT22;64604;44.752;37.674;2022-11-12T12:57:33;8.15;87.74
75925;DHT22;64604;44.752;37.674;2022-11-12T12:58:55;8.18;87.58
75925;DHT22;64604;44.752;37.674;2022-11-12T13:01:57;8.02;87.78
75925;DHT22;64604;44.752;37.674;2022-11-12T13:04:18;7.92;88.96
75925;DHT22;64604;44.752;37.674;2022-11-12T13:05:29;7.89;88.81
75925;DHT22;64604;44.752;37.674;2022-11-12T13:06:50;7.82;88.80
75925;DHT22;64604;44.752;37.674;2022-11-12T13:08:13;7.73;89.15
75925;DHT22;64604;44.752;37.674;2022-11-12T13:09:37;7.63;89.69
75925;DHT22;64604;44.752;37.674;2022-11-12T13:10:57;7.61;89.85
75925;DHT22;64604;44.752;37.674;2022-11-12T13:12:17;7.50;90.31
75925;DHT22;64604;44.752;37.674;2022-11-12T13:13:37;7.45;90.48
75925;DHT22;64604;44.752;37.674;2022-11-12T13:15:10;7.45;91.06
75925;DHT22;64604;44.752;37.674;2022-11-12T13:21:22;7.31;91.69
75925;DHT22;64604;44.752;37.674;2022-11-12T13:24:01;7.22;92.15
75925;DHT22;64604;44.752;37.674;2022-11-12T13:25:31;7.24;92.20
75925;DHT22;64604;44.752;37.674;2022-11-12T13:26:53;7.17;92.24
75925;DHT22;64604;44.752;37.674;2022-11-12T13:28:13;7.16;92.42
75925;DHT22;64604;44.752;37.674;2022-11-12T13:30:57;7.09;92.79
75925;DHT22;64604;44.752;37.674;2022-11-12T13:33:46;7.02;92.96
75925;DHT22;64604;44.752;37.674;2022-11-12T13:35:20;7.01;93.60
75925;DHT22;64604;44.752;37.674;2022-11-12T13:37:04;6.96;93.68
75925;DHT22;64604;44.752;37.674;2022-11-12T13:38:24;6.95;93.69
75925;DHT22;64604;44.752;37.674;2022-11-12T13:39:44;6.96;93.44